createdAt,value
2017-10-24T00:00:03.082Z,9.71
2017-10-24T00:00:07.041Z,9.71
2017-10-24T00:00:11.131Z,9.68
2017-10-24T00:00:15.339Z,9.68
2017-10-24T00:00:19.151Z,9.68
2017-10-24T00:00:23.502Z,9.73
2017-10-24T00:00:27.582Z,9.77
2017-10-24T00:00:31.530Z,9.75
2017-10-24T00:00:35.609Z,9.68
2017-10-24T00:00:39.829Z,9.67
2017-10-24T00:00:44.037Z,9.68
2017-10-24T00:00:48.121Z,9.73
2017-10-24T00:00:52.471Z,9.78
2017-10-24T00:00:56.545Z,9.7
2017-10-24T00:01:00.490Z,9.8
2017-10-24T00:01:04.438Z,9.74
2017-10-24T00:01:08.511Z,9.83
2017-10-24T00:01:12.597Z,9.71
2017-10-24T00:01:16.550Z,9.71
2017-10-24T00:01:20.768Z,9.74
2017-10-24T00:01:24.585Z,9.8
2017-10-24T00:01:28.801Z,9.7
2017-10-24T00:01:33.020Z,9.83
2017-10-24T00:01:37.106Z,9.73
2017-10-24T00:01:40.930Z,9.78
2017-10-24T00:01:44.891Z,9.85
2017-10-24T00:01:48.848Z,9.75
2017-10-24T00:01:53.071Z,9.85
2017-10-24T00:01:57.014Z,9.77
2017-10-24T00:02:01.222Z,9.77
2017-10-24T00:02:05.431Z,9.78
2017-10-24T00:02:09.521Z,9.75
2017-10-24T00:02:13.737Z,9.8
2017-10-24T00:02:17.821Z,9.78
2017-10-24T00:02:21.912Z,9.78
2017-10-24T00:02:26.120Z,9.83
2017-10-24T00:02:30.333Z,9.78
2017-10-24T00:02:34.278Z,9.74
2017-10-24T00:02:38.509Z,9.83
2017-10-24T00:02:42.584Z,9.8
2017-10-24T00:02:46.535Z,9.83
2017-10-24T00:02:50.488Z,9.77
2017-10-24T00:02:54.829Z,9.8
2017-10-24T00:02:59.053Z,9.77
2017-10-24T00:03:03.376Z,9.75
2017-10-24T00:03:07.323Z,9.78
2017-10-24T00:03:11.277Z,9.75
2017-10-24T00:03:15.360Z,9.8
2017-10-24T00:03:19.175Z,9.78
2017-10-24T00:03:23.254Z,9.8
2017-10-24T00:03:27.073Z,9.8
2017-10-24T00:03:31.021Z,9.78
2017-10-24T00:03:35.235Z,9.78
2017-10-24T00:03:39.055Z,9.8
2017-10-24T00:03:43.401Z,9.75
2017-10-24T00:03:47.625Z,9.81
2017-10-24T00:03:51.718Z,9.81
2017-10-24T00:03:55.531Z,9.85
2017-10-24T00:03:59.876Z,9.81
2017-10-24T00:04:04.090Z,9.8
2017-10-24T00:04:08.308Z,9.83
2017-10-24T00:04:12.249Z,9.81
2017-10-24T00:04:16.322Z,9.81
2017-10-24T00:04:20.407Z,9.75
2017-10-24T00:04:24.362Z,9.85
2017-10-24T00:04:28.179Z,9.8
2017-10-24T00:04:32.133Z,9.77
2017-10-24T00:04:36.081Z,9.81
2017-10-24T00:04:40.151Z,9.85
2017-10-24T00:04:44.102Z,9.77
2017-10-24T00:04:48.455Z,9.83
2017-10-24T00:04:52.532Z,9.78
2017-10-24T00:04:56.479Z,9.77
2017-10-24T00:05:00.424Z,9.78
2017-10-24T00:05:04.737Z,9.77
2017-10-24T00:05:08.823Z,9.83
2017-10-24T00:05:12.902Z,9.83
2017-10-24T00:05:16.842Z,9.83
2017-10-24T00:05:20.919Z,9.8
2017-10-24T00:05:25.020Z,9.88
2017-10-24T00:05:29.232Z,9.85
2017-10-24T00:05:33.053Z,9.83
2017-10-24T00:05:37.403Z,9.83
2017-10-24T00:05:41.501Z,9.78
2017-10-24T00:05:45.836Z,9.83
2017-10-24T00:05:49.655Z,9.81
2017-10-24T00:05:53.995Z,9.81
2017-10-24T00:05:58.198Z,9.81
2017-10-24T00:06:02.475Z,9.86
2017-10-24T00:06:06.687Z,9.85
2017-10-24T00:06:10.767Z,9.81
2017-10-24T00:06:14.965Z,9.8
2017-10-24T00:06:18.917Z,9.81
2017-10-24T00:06:23.267Z,9.88
2017-10-24T00:06:26.951Z,9.83
2017-10-24T00:06:30.910Z,9.78
2017-10-24T00:06:34.725Z,9.8
2017-10-24T00:06:38.670Z,9.83
2017-10-24T00:06:42.876Z,9.77
2017-10-24T00:06:46.955Z,9.78
2017-10-24T00:06:51.032Z,9.85
2017-10-24T00:06:54.979Z,9.81
2017-10-24T00:06:59.069Z,9.78
2017-10-24T00:07:03.582Z,9.83
2017-10-24T00:07:07.676Z,9.85
2017-10-24T00:07:11.640Z,9.85
2017-10-24T00:07:15.456Z,9.8
2017-10-24T00:07:19.797Z,9.81
2017-10-24T00:07:23.743Z,9.89
2017-10-24T00:07:27.958Z,9.88
2017-10-24T00:07:32.039Z,9.83
2017-10-24T00:07:35.862Z,9.86
2017-10-24T00:07:39.683Z,9.85
2017-10-24T00:07:43.895Z,9.83
2017-10-24T00:07:47.986Z,9.81
2017-10-24T00:07:51.798Z,9.83
2017-10-24T00:07:55.627Z,9.89
2017-10-24T00:07:59.842Z,9.86
2017-10-24T00:08:04.159Z,9.85
2017-10-24T00:08:08.379Z,9.89
2017-10-24T00:08:12.462Z,9.91
2017-10-24T00:08:16.417Z,9.86
2017-10-24T00:08:20.498Z,9.86
2017-10-24T00:08:24.698Z,9.89
2017-10-24T00:08:28.774Z,9.88
2017-10-24T00:08:32.864Z,9.86
2017-10-24T00:08:37.212Z,9.86
2017-10-24T00:08:41.289Z,9.86
2017-10-24T00:08:45.511Z,9.88
2017-10-24T00:08:49.599Z,9.75
2017-10-24T00:08:53.543Z,9.91
2017-10-24T00:08:57.365Z,9.88
2017-10-24T00:09:01.588Z,9.75
2017-10-24T00:09:05.679Z,9.8
2017-10-24T00:09:09.627Z,9.77
2017-10-24T00:09:13.706Z,9.8
2017-10-24T00:09:17.908Z,9.91
2017-10-24T00:09:21.860Z,9.91
2017-10-24T00:09:25.811Z,9.75
2017-10-24T00:09:29.624Z,9.89
2017-10-24T00:09:33.712Z,9.88
2017-10-24T00:09:37.799Z,9.96
2017-10-24T00:09:41.748Z,9.91
2017-10-24T00:09:45.953Z,9.91
2017-10-24T00:09:49.898Z,9.81
2017-10-24T00:09:53.987Z,9.92
2017-10-24T00:09:58.068Z,9.77
2017-10-24T00:10:02.166Z,9.86
2017-10-24T00:10:06.253Z,9.86
2017-10-24T00:10:10.335Z,9.88
2017-10-24T00:10:14.453Z,9.88
2017-10-24T00:10:18.530Z,9.93
2017-10-24T00:10:22.476Z,9.92
2017-10-24T00:10:26.158Z,9.91
2017-10-24T00:10:30.244Z,9.91
2017-10-24T00:10:34.187Z,9.88
2017-10-24T00:10:38.005Z,9.86
2017-10-24T00:10:42.094Z,9.85
2017-10-24T00:10:46.298Z,9.88
2017-10-24T00:10:50.118Z,9.91
2017-10-24T00:10:54.197Z,9.95
2017-10-24T00:10:58.011Z,9.89
2017-10-24T00:11:02.093Z,9.93
2017-10-24T00:11:06.315Z,9.89
2017-10-24T00:11:10.514Z,9.85
2017-10-24T00:11:14.461Z,9.88
2017-10-24T00:11:18.681Z,9.88
2017-10-24T00:11:22.778Z,9.91
2017-10-24T00:11:26.849Z,9.92
2017-10-24T00:11:30.790Z,9.93
2017-10-24T00:11:34.757Z,9.81
2017-10-24T00:11:38.834Z,9.88
2017-10-24T00:11:42.779Z,9.93
2017-10-24T00:11:46.734Z,9.92
2017-10-24T00:11:50.813Z,9.93
2017-10-24T00:11:54.628Z,9.89
2017-10-24T00:11:58.841Z,9.86
2017-10-24T00:12:02.654Z,9.93
2017-10-24T00:12:06.471Z,9.92
2017-10-24T00:12:10.546Z,9.95
2017-10-24T00:12:14.754Z,9.86
2017-10-24T00:12:18.700Z,9.93
2017-10-24T00:12:22.778Z,9.95
2017-10-24T00:12:26.857Z,9.91
2017-10-24T00:12:31.080Z,9.89
2017-10-24T00:12:35.162Z,9.95
2017-10-24T00:12:39.114Z,9.88
2017-10-24T00:12:42.932Z,9.86
2017-10-24T00:12:46.879Z,9.93
2017-10-24T00:12:50.831Z,9.96
2017-10-24T00:12:55.046Z,9.89
2017-10-24T00:12:59.127Z,9.93
2017-10-24T00:13:03.219Z,9.91
2017-10-24T00:13:07.304Z,9.95
2017-10-24T00:13:11.382Z,9.98
2017-10-24T00:13:15.198Z,9.92
2017-10-24T00:13:19.282Z,9.86
2017-10-24T00:13:23.231Z,9.91
2017-10-24T00:13:27.040Z,9.92
2017-10-24T00:13:30.983Z,9.93
2017-10-24T00:13:35.064Z,9.93
2017-10-24T00:13:39.038Z,9.96
2017-10-24T00:13:42.725Z,9.93
2017-10-24T00:13:46.803Z,9.98
2017-10-24T00:13:50.613Z,9.92
2017-10-24T00:13:54.557Z,9.98
2017-10-24T00:13:58.507Z,9.93
2017-10-24T00:14:02.684Z,9.92
2017-10-24T00:14:06.893Z,9.91
2017-10-24T00:14:10.713Z,9.91
2017-10-24T00:14:15.192Z,9.89
2017-10-24T00:14:19.006Z,9.89
2017-10-24T00:14:22.956Z,9.91
2017-10-24T00:14:26.899Z,9.92
2017-10-24T00:14:30.843Z,9.93
2017-10-24T00:14:34.654Z,9.92
2017-10-24T00:14:38.603Z,9.92
2017-10-24T00:14:42.421Z,9.98
2017-10-24T00:14:46.625Z,9.96
2017-10-24T00:14:50.831Z,9.95
2017-10-24T00:14:54.913Z,9.96
2017-10-24T00:14:58.990Z,9.92
2017-10-24T00:15:03.180Z,9.95
2017-10-24T00:15:07.138Z,9.91
2017-10-24T00:15:11.225Z,9.96
2017-10-24T00:15:15.300Z,9.96
2017-10-24T00:15:19.372Z,9.89
2017-10-24T00:15:23.467Z,9.99
2017-10-24T00:15:27.550Z,9.96
2017-10-24T00:15:31.753Z,9.96
2017-10-24T00:15:35.704Z,9.98
2017-10-24T00:15:39.920Z,9.93
2017-10-24T00:15:43.999Z,9.95
2017-10-24T00:15:47.814Z,9.96
2017-10-24T00:15:52.061Z,9.96
2017-10-24T00:15:56.134Z,9.95
2017-10-24T00:16:00.080Z,9.96
2017-10-24T00:16:04.309Z,9.95
2017-10-24T00:16:08.128Z,9.98
2017-10-24T00:16:12.070Z,9.95
2017-10-24T00:16:16.021Z,9.93
2017-10-24T00:16:19.837Z,9.96
2017-10-24T00:16:23.912Z,9.98
2017-10-24T00:16:27.858Z,9.95
2017-10-24T00:16:31.673Z,9.92
2017-10-24T00:16:35.495Z,9.93
2017-10-24T00:16:39.565Z,9.91
2017-10-24T00:16:43.647Z,9.88
2017-10-24T00:16:47.327Z,9.92
2017-10-24T00:16:51.137Z,9.99
2017-10-24T00:16:55.082Z,9.95
2017-10-24T00:16:59.155Z,9.98
2017-10-24T00:17:03.489Z,9.95
2017-10-24T00:17:07.437Z,10.01
2017-10-24T00:17:11.524Z,9.91
2017-10-24T00:17:15.336Z,9.91
2017-10-24T00:17:19.674Z,9.95
2017-10-24T00:17:23.883Z,9.96
2017-10-24T00:17:27.694Z,9.95
2017-10-24T00:17:32.035Z,9.95
2017-10-24T00:17:36.112Z,9.96
2017-10-24T00:17:40.056Z,9.92
2017-10-24T00:17:44.136Z,10.02
2017-10-24T00:17:47.962Z,9.95
2017-10-24T00:17:51.925Z,9.92
2017-10-24T00:17:55.739Z,9.95
2017-10-24T00:17:59.552Z,9.96
2017-10-24T00:18:03.236Z,9.98
2017-10-24T00:18:07.187Z,9.92
2017-10-24T00:18:11.131Z,9.95
2017-10-24T00:18:14.942Z,9.98
2017-10-24T00:18:19.028Z,9.99
2017-10-24T00:18:23.239Z,9.91
2017-10-24T00:18:27.316Z,9.95
2017-10-24T00:18:31.260Z,9.93
2017-10-24T00:18:35.092Z,9.95
2017-10-24T00:18:39.043Z,9.98
2017-10-24T00:18:43.117Z,9.96
2017-10-24T00:18:47.209Z,9.96
2017-10-24T00:18:51.015Z,10.01
2017-10-24T00:18:54.825Z,9.99
2017-10-24T00:18:58.774Z,9.93
2017-10-24T00:19:03.226Z,9.91
2017-10-24T00:19:07.176Z,9.89
2017-10-24T00:19:11.387Z,9.86
2017-10-24T00:19:15.479Z,9.96
2017-10-24T00:19:19.693Z,9.96
2017-10-24T00:19:23.769Z,9.89
2017-10-24T00:19:27.585Z,9.95
2017-10-24T00:19:31.666Z,9.92
2017-10-24T00:19:35.479Z,9.93
2017-10-24T00:19:39.439Z,9.93
2017-10-24T00:19:43.512Z,9.95
2017-10-24T00:19:47.591Z,9.93
2017-10-24T00:19:51.403Z,9.93
2017-10-24T00:19:55.084Z,9.98
2017-10-24T00:19:59.028Z,9.93
2017-10-24T00:20:02.842Z,9.92
2017-10-24T00:20:07.054Z,9.95
2017-10-24T00:20:11.000Z,9.95
2017-10-24T00:20:14.684Z,9.92
2017-10-24T00:20:18.638Z,9.96
2017-10-24T00:20:22.868Z,10.01
2017-10-24T00:20:26.951Z,9.93
2017-10-24T00:20:30.769Z,9.89
2017-10-24T00:20:34.590Z,9.95
2017-10-24T00:20:38.540Z,9.96
2017-10-24T00:20:42.490Z,9.96
2017-10-24T00:20:46.570Z,9.99
2017-10-24T00:20:50.381Z,9.95
2017-10-24T00:20:54.467Z,9.95
2017-10-24T00:20:58.422Z,9.96
2017-10-24T00:21:02.481Z,9.98
2017-10-24T00:21:06.545Z,9.96
2017-10-24T00:21:10.624Z,9.95
2017-10-24T00:21:14.710Z,9.95
2017-10-24T00:21:18.519Z,9.99
2017-10-24T00:21:22.614Z,9.95
2017-10-24T00:21:26.686Z,9.93
2017-10-24T00:21:30.517Z,9.93
2017-10-24T00:21:34.319Z,9.95
2017-10-24T00:21:38.530Z,9.99
2017-10-24T00:21:42.871Z,9.93
2017-10-24T00:21:46.839Z,9.96
2017-10-24T00:21:51.039Z,9.95
2017-10-24T00:21:54.985Z,9.93
2017-10-24T00:21:58.799Z,9.95
2017-10-24T00:22:03.235Z,9.95
2017-10-24T00:22:07.195Z,9.92
2017-10-24T00:22:11.278Z,9.96
2017-10-24T00:22:15.494Z,9.96
2017-10-24T00:22:19.577Z,9.96
2017-10-24T00:22:23.785Z,9.95
2017-10-24T00:22:27.732Z,9.96
2017-10-24T00:22:31.937Z,9.92
2017-10-24T00:22:36.147Z,9.98
2017-10-24T00:22:40.360Z,9.96
2017-10-24T00:22:44.171Z,9.95
2017-10-24T00:22:48.115Z,9.93
2017-10-24T00:22:52.064Z,9.98
2017-10-24T00:22:56.150Z,9.93
2017-10-24T00:22:59.831Z,9.95
2017-10-24T00:23:03.658Z,9.96
2017-10-24T00:23:07.475Z,9.95
2017-10-24T00:23:11.557Z,9.96
2017-10-24T00:23:15.379Z,9.98
2017-10-24T00:23:19.190Z,9.92
2017-10-24T00:23:23.265Z,10.01
2017-10-24T00:23:27.481Z,9.99
2017-10-24T00:23:31.560Z,9.95
2017-10-24T00:23:35.915Z,9.95
2017-10-24T00:23:39.740Z,9.92
2017-10-24T00:23:43.553Z,9.93
2017-10-24T00:23:47.629Z,9.89
2017-10-24T00:23:51.582Z,9.92
2017-10-24T00:23:55.661Z,9.96
2017-10-24T00:23:59.886Z,9.96
2017-10-24T00:24:04.106Z,9.95
2017-10-24T00:24:07.790Z,9.96
2017-10-24T00:24:12.137Z,9.91
2017-10-24T00:24:16.212Z,9.96
2017-10-24T00:24:20.423Z,9.93
2017-10-24T00:24:24.502Z,9.93
2017-10-24T00:24:28.313Z,9.93
2017-10-24T00:24:32.253Z,9.92
2017-10-24T00:24:36.343Z,9.93
2017-10-24T00:24:40.292Z,9.95
2017-10-24T00:24:44.629Z,9.96
2017-10-24T00:24:48.843Z,9.96
2017-10-24T00:24:52.935Z,9.96
2017-10-24T00:24:56.750Z,9.96
2017-10-24T00:25:00.960Z,9.93
2017-10-24T00:25:05.040Z,9.93
2017-10-24T00:25:09.391Z,9.99
2017-10-24T00:25:13.337Z,9.91
2017-10-24T00:25:17.551Z,9.95
2017-10-24T00:25:21.505Z,9.95
2017-10-24T00:25:25.580Z,9.96
2017-10-24T00:25:29.394Z,9.93
2017-10-24T00:25:33.468Z,9.96
2017-10-24T00:25:37.415Z,9.93
2017-10-24T00:25:41.493Z,9.93
2017-10-24T00:25:45.705Z,9.91
2017-10-24T00:25:49.785Z,9.95
2017-10-24T00:25:53.998Z,9.95
2017-10-24T00:25:58.219Z,9.91
2017-10-24T00:26:02.026Z,9.89
2017-10-24T00:26:06.100Z,9.93
2017-10-24T00:26:09.918Z,9.92
2017-10-24T00:26:13.865Z,9.92
2017-10-24T00:26:17.682Z,9.91
2017-10-24T00:26:21.624Z,9.93
2017-10-24T00:26:25.711Z,9.91
2017-10-24T00:26:29.518Z,9.89
2017-10-24T00:26:33.468Z,9.98
2017-10-24T00:26:37.422Z,9.89
2017-10-24T00:26:41.372Z,9.96
2017-10-24T00:26:45.458Z,9.89
2017-10-24T00:26:49.544Z,9.89
2017-10-24T00:26:53.487Z,9.98
2017-10-24T00:26:57.564Z,9.95
2017-10-24T00:27:01.770Z,9.86
2017-10-24T00:27:05.882Z,9.92
2017-10-24T00:27:09.962Z,9.93
2017-10-24T00:27:13.909Z,9.92
2017-10-24T00:27:17.986Z,9.88
2017-10-24T00:27:22.063Z,9.91
2017-10-24T00:27:26.132Z,9.91
2017-10-24T00:27:30.218Z,9.89
2017-10-24T00:27:34.167Z,9.86
2017-10-24T00:27:38.510Z,9.95
2017-10-24T00:27:42.451Z,9.91
2017-10-24T00:27:46.682Z,9.99
2017-10-24T00:27:50.630Z,9.96
2017-10-24T00:27:54.978Z,9.86
2017-10-24T00:27:59.066Z,9.91
2017-10-24T00:28:03.144Z,9.89
2017-10-24T00:28:07.223Z,9.93
2017-10-24T00:28:11.170Z,9.89
2017-10-24T00:28:15.380Z,9.92
2017-10-24T00:28:19.591Z,9.91
2017-10-24T00:28:23.426Z,9.88
2017-10-24T00:28:27.261Z,9.88
2017-10-24T00:28:31.448Z,9.88
2017-10-24T00:28:35.528Z,9.91
2017-10-24T00:28:39.347Z,9.78
2017-10-24T00:28:43.297Z,9.89
2017-10-24T00:28:47.372Z,9.86
2017-10-24T00:28:51.456Z,9.93
2017-10-24T00:28:55.668Z,9.83
2017-10-24T00:28:59.482Z,9.83
2017-10-24T00:29:03.707Z,9.81
2017-10-24T00:29:07.652Z,9.78
2017-10-24T00:29:11.460Z,9.8
2017-10-24T00:29:15.535Z,9.88
2017-10-24T00:29:19.484Z,9.85
2017-10-24T00:29:23.424Z,9.88
2017-10-24T00:29:27.377Z,9.85
2017-10-24T00:29:31.461Z,9.78
2017-10-24T00:29:35.553Z,9.92
2017-10-24T00:29:39.757Z,9.8
2017-10-24T00:29:43.697Z,9.81
2017-10-24T00:29:47.377Z,9.92
2017-10-24T00:29:51.191Z,9.77
2017-10-24T00:29:55.414Z,9.85
2017-10-24T00:29:59.625Z,9.86
2017-10-24T00:30:03.618Z,9.83
2017-10-24T00:30:07.564Z,9.81
2017-10-24T00:30:11.384Z,9.83
2017-10-24T00:30:15.212Z,9.85
2017-10-24T00:30:19.160Z,9.85
2017-10-24T00:30:23.241Z,9.91
2017-10-24T00:30:27.316Z,9.88
2017-10-24T00:30:31.139Z,9.85
2017-10-24T00:30:35.089Z,9.81
2017-10-24T00:30:38.770Z,9.81
2017-10-24T00:30:42.589Z,9.77
2017-10-24T00:30:46.669Z,9.85
2017-10-24T00:30:50.881Z,9.8
2017-10-24T00:30:54.954Z,9.85
2017-10-24T00:30:59.287Z,9.85
2017-10-24T00:31:03.630Z,9.81
2017-10-24T00:31:07.453Z,9.85
2017-10-24T00:31:11.274Z,9.81
2017-10-24T00:31:15.356Z,9.81
2017-10-24T00:31:19.170Z,9.83
2017-10-24T00:31:23.246Z,9.81
2017-10-24T00:31:27.583Z,9.83
2017-10-24T00:31:31.785Z,9.8
2017-10-24T00:31:35.881Z,9.77
2017-10-24T00:31:40.102Z,9.8
2017-10-24T00:31:44.050Z,9.83
2017-10-24T00:31:47.994Z,9.8
2017-10-24T00:31:51.808Z,9.85
2017-10-24T00:31:55.888Z,9.85
2017-10-24T00:31:59.833Z,9.78
2017-10-24T00:32:04.046Z,9.78
2017-10-24T00:32:07.734Z,9.83
2017-10-24T00:32:11.685Z,9.78
2017-10-24T00:32:15.627Z,9.77
2017-10-24T00:32:19.443Z,9.81
2017-10-24T00:32:23.521Z,9.86
2017-10-24T00:32:27.609Z,9.81
2017-10-24T00:32:31.821Z,9.83
2017-10-24T00:32:35.771Z,9.81
2017-10-24T00:32:39.722Z,9.81
2017-10-24T00:32:43.806Z,9.8
2017-10-24T00:32:48.148Z,9.77
2017-10-24T00:32:52.215Z,9.81
2017-10-24T00:32:56.162Z,9.85
2017-10-24T00:33:00.141Z,9.78
2017-10-24T00:33:04.091Z,9.85
2017-10-24T00:33:08.045Z,9.81
2017-10-24T00:33:12.125Z,9.83
2017-10-24T00:33:16.362Z,9.83
2017-10-24T00:33:20.462Z,9.81
2017-10-24T00:33:24.408Z,9.83
2017-10-24T00:33:28.222Z,9.85
2017-10-24T00:33:32.302Z,9.8
2017-10-24T00:33:36.256Z,9.83
2017-10-24T00:33:40.066Z,9.8
2017-10-24T00:33:44.272Z,9.85
2017-10-24T00:33:48.219Z,9.78
2017-10-24T00:33:52.034Z,9.8
2017-10-24T00:33:56.109Z,9.83
2017-10-24T00:33:59.928Z,9.83
2017-10-24T00:34:04.415Z,9.78
2017-10-24T00:34:08.360Z,9.83
2017-10-24T00:34:12.439Z,9.77
2017-10-24T00:34:16.648Z,9.85
2017-10-24T00:34:20.734Z,9.86
2017-10-24T00:34:24.677Z,9.83
2017-10-24T00:34:28.627Z,9.77
2017-10-24T00:34:32.728Z,9.83
2017-10-24T00:34:36.668Z,9.83
2017-10-24T00:34:41.013Z,9.77
2017-10-24T00:34:44.831Z,9.85
2017-10-24T00:34:48.647Z,9.78
2017-10-24T00:34:52.729Z,9.83
2017-10-24T00:34:56.800Z,9.78
2017-10-24T00:35:00.764Z,9.78
2017-10-24T00:35:04.974Z,9.8
2017-10-24T00:35:08.655Z,9.77
2017-10-24T00:35:12.609Z,9.81
2017-10-24T00:35:16.557Z,9.77
2017-10-24T00:35:20.633Z,9.8
2017-10-24T00:35:24.848Z,9.83
2017-10-24T00:35:28.921Z,9.81
2017-10-24T00:35:33.130Z,9.78
2017-10-24T00:35:36.811Z,9.81
2017-10-24T00:35:41.021Z,9.78
2017-10-24T00:35:44.838Z,9.81
2017-10-24T00:35:48.912Z,9.8
2017-10-24T00:35:52.997Z,9.77
2017-10-24T00:35:56.682Z,9.85
2017-10-24T00:36:00.764Z,9.81
2017-10-24T00:36:04.580Z,9.81
2017-10-24T00:36:08.268Z,9.75
2017-10-24T00:36:12.341Z,9.75
2017-10-24T00:36:16.549Z,9.78
2017-10-24T00:36:20.506Z,9.77
2017-10-24T00:36:24.594Z,9.75
2017-10-24T00:36:28.549Z,9.81
2017-10-24T00:36:32.363Z,9.83
2017-10-24T00:36:36.462Z,9.75
2017-10-24T00:36:40.542Z,9.78
2017-10-24T00:36:44.615Z,9.83
2017-10-24T00:36:48.563Z,9.81
2017-10-24T00:36:52.674Z,9.81
2017-10-24T00:36:56.880Z,9.81
2017-10-24T00:37:00.959Z,9.77
2017-10-24T00:37:05.044Z,9.86
2017-10-24T00:37:08.858Z,9.78
2017-10-24T00:37:12.802Z,9.78
2017-10-24T00:37:16.765Z,9.74
2017-10-24T00:37:20.704Z,9.8
2017-10-24T00:37:25.036Z,9.77
2017-10-24T00:37:28.851Z,9.85
2017-10-24T00:37:32.799Z,9.78
2017-10-24T00:37:37.018Z,9.81
2017-10-24T00:37:41.090Z,9.81
2017-10-24T00:37:45.172Z,9.78
2017-10-24T00:37:48.860Z,9.78
2017-10-24T00:37:52.937Z,9.83
2017-10-24T00:37:57.158Z,9.81
2017-10-24T00:38:01.098Z,9.78
2017-10-24T00:38:05.240Z,9.81
2017-10-24T00:38:09.457Z,9.8
2017-10-24T00:38:13.412Z,9.8
2017-10-24T00:38:17.625Z,9.78
2017-10-24T00:38:21.717Z,9.81
2017-10-24T00:38:25.802Z,9.77
2017-10-24T00:38:30.141Z,9.78
2017-10-24T00:38:34.091Z,9.85
2017-10-24T00:38:38.173Z,9.78
2017-10-24T00:38:42.112Z,9.8
2017-10-24T00:38:46.196Z,9.81
2017-10-24T00:38:50.275Z,9.81
2017-10-24T00:38:54.089Z,9.77
2017-10-24T00:38:58.165Z,9.78
2017-10-24T00:39:02.418Z,9.81
2017-10-24T00:39:06.230Z,9.78
2017-10-24T00:39:10.577Z,9.83
2017-10-24T00:39:14.529Z,9.83
2017-10-24T00:39:18.358Z,9.78
2017-10-24T00:39:22.702Z,9.78
2017-10-24T00:39:27.047Z,9.81
2017-10-24T00:39:31.393Z,9.78
2017-10-24T00:39:35.209Z,9.77
2017-10-24T00:39:39.416Z,9.83
2017-10-24T00:39:43.495Z,9.8
2017-10-24T00:39:47.575Z,9.8
2017-10-24T00:39:51.784Z,9.85
2017-10-24T00:39:55.864Z,9.81
2017-10-24T00:39:59.819Z,9.81
2017-10-24T00:40:03.896Z,9.81
2017-10-24T00:40:08.114Z,9.75
2017-10-24T00:40:12.069Z,9.81
2017-10-24T00:40:16.045Z,9.78
2017-10-24T00:40:20.126Z,9.77
2017-10-24T00:40:24.212Z,9.81
2017-10-24T00:40:28.163Z,9.78
2017-10-24T00:40:32.243Z,9.78
2017-10-24T00:40:35.926Z,9.81
2017-10-24T00:40:40.140Z,9.83
2017-10-24T00:40:44.215Z,9.78
2017-10-24T00:40:48.164Z,9.78
2017-10-24T00:40:52.115Z,9.75
2017-10-24T00:40:56.220Z,9.85
2017-10-24T00:41:00.296Z,9.75
2017-10-24T00:41:04.768Z,9.8
2017-10-24T00:41:08.715Z,9.77
2017-10-24T00:41:12.655Z,9.77
2017-10-24T00:41:16.874Z,9.78
2017-10-24T00:41:20.690Z,9.81
2017-10-24T00:41:24.776Z,9.78
2017-10-24T00:41:28.724Z,9.8
2017-10-24T00:41:32.804Z,9.77
2017-10-24T00:41:36.757Z,9.8
2017-10-24T00:41:40.856Z,9.74
2017-10-24T00:41:44.807Z,9.83
2017-10-24T00:41:48.751Z,9.8
2017-10-24T00:41:52.954Z,9.8
2017-10-24T00:41:57.290Z,9.78
2017-10-24T00:42:00.973Z,9.8
2017-10-24T00:42:05.492Z,9.8
2017-10-24T00:42:09.308Z,9.83
2017-10-24T00:42:13.252Z,9.8
2017-10-24T00:42:17.327Z,9.77
2017-10-24T00:42:21.408Z,9.71
2017-10-24T00:42:25.360Z,9.74
2017-10-24T00:42:29.695Z,9.71
2017-10-24T00:42:33.910Z,9.8
2017-10-24T00:42:37.987Z,9.8
2017-10-24T00:42:41.933Z,9.77
2017-10-24T00:42:46.147Z,9.8
2017-10-24T00:42:50.105Z,9.78
2017-10-24T00:42:54.183Z,9.81
2017-10-24T00:42:58.132Z,9.78
2017-10-24T00:43:02.294Z,9.78
2017-10-24T00:43:06.383Z,9.73
2017-10-24T00:43:10.328Z,9.8
2017-10-24T00:43:14.145Z,9.77
2017-10-24T00:43:18.099Z,9.78
2017-10-24T00:43:22.332Z,9.83
2017-10-24T00:43:26.544Z,9.85
2017-10-24T00:43:30.630Z,9.75
2017-10-24T00:43:34.574Z,9.78
2017-10-24T00:43:38.391Z,9.75
2017-10-24T00:43:42.634Z,9.81
2017-10-24T00:43:46.591Z,9.78
2017-10-24T00:43:50.665Z,9.71
2017-10-24T00:43:54.751Z,9.73
2017-10-24T00:43:58.706Z,9.77
2017-10-24T00:44:02.784Z,9.75
2017-10-24T00:44:06.727Z,9.77
2017-10-24T00:44:10.954Z,9.83
2017-10-24T00:44:14.897Z,9.78
2017-10-24T00:44:19.103Z,9.77
2017-10-24T00:44:23.319Z,9.75
2017-10-24T00:44:27.137Z,9.83
2017-10-24T00:44:30.944Z,9.78
2017-10-24T00:44:34.904Z,9.78
2017-10-24T00:44:38.843Z,9.74
2017-10-24T00:44:42.926Z,9.74
2017-10-24T00:44:46.877Z,9.85
2017-10-24T00:44:50.712Z,9.73
2017-10-24T00:44:54.764Z,9.83
2017-10-24T00:44:58.852Z,9.73
2017-10-24T00:45:03.066Z,9.83
2017-10-24T00:45:07.152Z,9.8
2017-10-24T00:45:11.232Z,9.85
2017-10-24T00:45:15.442Z,9.73
2017-10-24T00:45:19.540Z,9.81
2017-10-24T00:45:23.358Z,9.68
2017-10-24T00:45:27.437Z,9.81
2017-10-24T00:45:31.516Z,9.77
2017-10-24T00:45:35.591Z,9.8
2017-10-24T00:45:39.409Z,9.77
2017-10-24T00:45:43.904Z,9.83
2017-10-24T00:45:47.975Z,9.67
2017-10-24T00:45:52.193Z,9.83
2017-10-24T00:45:56.542Z,9.68
2017-10-24T00:46:00.625Z,9.68
2017-10-24T00:46:04.567Z,9.78
2017-10-24T00:46:08.518Z,9.73
2017-10-24T00:46:12.350Z,9.75
2017-10-24T00:46:16.294Z,9.67
2017-10-24T00:46:20.117Z,9.78
2017-10-24T00:46:24.063Z,9.77
2017-10-24T00:46:28.018Z,9.77
2017-10-24T00:46:32.224Z,9.73
2017-10-24T00:46:36.037Z,9.73
2017-10-24T00:46:40.150Z,9.71
2017-10-24T00:46:44.489Z,9.68
2017-10-24T00:46:48.435Z,9.8
2017-10-24T00:46:52.517Z,9.71
2017-10-24T00:46:56.613Z,9.73
2017-10-24T00:47:00.292Z,9.75
2017-10-24T00:47:04.439Z,9.73
2017-10-24T00:47:08.657Z,9.68
2017-10-24T00:47:12.614Z,9.75
2017-10-24T00:47:16.833Z,9.65
2017-10-24T00:47:20.642Z,9.71
2017-10-24T00:47:24.456Z,9.68
2017-10-24T00:47:28.272Z,9.67
2017-10-24T00:47:32.359Z,9.65
2017-10-24T00:47:36.045Z,9.68
2017-10-24T00:47:40.125Z,9.73
2017-10-24T00:47:43.814Z,9.7
2017-10-24T00:47:47.630Z,9.73
2017-10-24T00:47:51.570Z,9.7
2017-10-24T00:47:55.526Z,9.68
2017-10-24T00:47:59.612Z,9.68
2017-10-24T00:48:03.862Z,9.67
2017-10-24T00:48:07.681Z,9.75
2017-10-24T00:48:11.511Z,9.73
2017-10-24T00:48:15.730Z,9.75
2017-10-24T00:48:19.416Z,9.71
2017-10-24T00:48:23.364Z,9.73
2017-10-24T00:48:27.307Z,9.68
2017-10-24T00:48:31.376Z,9.68
2017-10-24T00:48:35.197Z,9.68
2017-10-24T00:48:39.013Z,9.73
2017-10-24T00:48:42.956Z,9.75
2017-10-24T00:48:47.033Z,9.73
2017-10-24T00:48:50.980Z,9.7
2017-10-24T00:48:55.060Z,9.81
2017-10-24T00:48:58.743Z,9.71
2017-10-24T00:49:02.659Z,9.67
2017-10-24T00:49:06.748Z,9.68
2017-10-24T00:49:10.830Z,9.73
2017-10-24T00:49:14.907Z,9.7
2017-10-24T00:49:18.722Z,9.7
2017-10-24T00:49:22.539Z,9.67
2017-10-24T00:49:26.358Z,9.7
2017-10-24T00:49:30.582Z,9.71
2017-10-24T00:49:34.656Z,9.68
2017-10-24T00:49:38.599Z,9.71
2017-10-24T00:49:42.803Z,9.7
2017-10-24T00:49:46.756Z,9.74
2017-10-24T00:49:50.964Z,9.71
2017-10-24T00:49:55.042Z,9.74
2017-10-24T00:49:59.124Z,9.73
2017-10-24T00:50:03.202Z,9.7
2017-10-24T00:50:07.016Z,9.7
2017-10-24T00:50:11.374Z,9.65
2017-10-24T00:50:15.185Z,9.7
2017-10-24T00:50:19.532Z,9.68
2017-10-24T00:50:23.614Z,9.63
2017-10-24T00:50:27.740Z,9.71
2017-10-24T00:50:31.826Z,9.7
2017-10-24T00:50:35.910Z,9.68
2017-10-24T00:50:39.988Z,9.65
2017-10-24T00:50:43.931Z,9.68
2017-10-24T00:50:48.014Z,9.71
2017-10-24T00:50:52.240Z,9.7
2017-10-24T00:50:56.582Z,9.71
2017-10-24T00:51:00.662Z,9.73
2017-10-24T00:51:04.582Z,9.7
2017-10-24T00:51:08.534Z,9.71
2017-10-24T00:51:12.742Z,9.65
2017-10-24T00:51:16.559Z,9.65
2017-10-24T00:51:20.772Z,9.7
2017-10-24T00:51:24.983Z,9.74
2017-10-24T00:51:28.796Z,9.73
2017-10-24T00:51:32.877Z,9.7
2017-10-24T00:51:36.827Z,9.65
2017-10-24T00:51:40.901Z,9.78
2017-10-24T00:51:44.848Z,9.6
2017-10-24T00:51:48.791Z,9.74
2017-10-24T00:51:53.001Z,9.6
2017-10-24T00:51:57.081Z,9.67
2017-10-24T00:52:01.307Z,9.65
2017-10-24T00:52:05.124Z,9.74
2017-10-24T00:52:09.073Z,9.7
2017-10-24T00:52:13.163Z,9.62
2017-10-24T00:52:17.111Z,9.68
2017-10-24T00:52:20.925Z,9.6
2017-10-24T00:52:24.876Z,9.68
2017-10-24T00:52:28.827Z,9.74
2017-10-24T00:52:33.028Z,9.68
2017-10-24T00:52:36.845Z,9.75
2017-10-24T00:52:40.933Z,9.71
2017-10-24T00:52:44.871Z,9.62
2017-10-24T00:52:48.952Z,9.73
2017-10-24T00:52:53.049Z,9.7
2017-10-24T00:52:57.118Z,9.74
2017-10-24T00:53:01.452Z,9.68
2017-10-24T00:53:05.524Z,9.68
2017-10-24T00:53:09.734Z,9.7
2017-10-24T00:53:13.418Z,9.74
2017-10-24T00:53:17.491Z,9.71
2017-10-24T00:53:21.574Z,9.68
2017-10-24T00:53:25.782Z,9.68
2017-10-24T00:53:30.116Z,9.67
2017-10-24T00:53:34.340Z,9.71
2017-10-24T00:53:38.289Z,9.68
2017-10-24T00:53:42.361Z,9.63
2017-10-24T00:53:46.306Z,9.74
2017-10-24T00:53:50.518Z,9.71